Погода Барра-Бонитана неделю

Сан-Паулу, Бразилия

19 - 25 июля
  • 19июля
    Сегодня
    +13°
    +27°
    Ясно и безоблачно
    ВремяПогодаТемператураВлажностьДавлениеВетер, м/сВероятность осадков
    00:00Ясно и безоблачно+18°C78 %728 мм3.6 м/с5 %
    03:00Небольшая облачность+15°C97 %727 мм4.2 м/с5 %
    06:00Облачно с прояснениями+16°C98 %728 мм3.8 м/с5 %
    09:00Небольшая облачность+17°C85 %730 мм3.5 м/с5 %
    12:00Ясно и безоблачно+22°C58 %730 мм3.5 м/с5 %
    15:00Ясно и безоблачно+26°C43 %728 мм2.8 м/с5 %
    18:00Ясно и безоблачно+23°C57 %728 мм2.6 м/с5 %
    21:00Ясно и безоблачно+20°C64 %728 мм2.8 м/с5 %
  • 20июля
    Суббота
    +12°
    +27°
    Ясно и безоблачно
    ВремяПогодаТемператураВлажностьДавлениеВетер, м/сВероятность осадков
    00:00Ясно и безоблачно+16°C74 %728 мм2.8 м/с5 %
    03:00Ясно и безоблачно+14°C84 %727 мм3.0 м/с5 %
    06:00Ясно и безоблачно+14°C93 %727 мм3.2 м/с5 %
    09:00Ясно и безоблачно+16°C80 %728 мм3.1 м/с5 %
    12:00Ясно и безоблачно+22°C51 %728 мм3.2 м/с5 %
    15:00Ясно и безоблачно+26°C36 %727 мм2.8 м/с5 %
    18:00Ясно и безоблачно+22°C59 %726 мм2.3 м/с5 %
    21:00Ясно и безоблачно+19°C61 %726 мм2.5 м/с5 %
  • 21июля
    Воскресенье
    +14°
    +28°
    Ясно и безоблачно
    ВремяПогодаТемператураВлажностьДавлениеВетер, м/сВероятность осадков
    00:00Ясно и безоблачно+16°C89 %727 мм4.7 м/с5 %
    03:00Практически безоблачно+14°C96 %726 мм4.4 м/с5 %
    06:00Небольшая облачность+14°C96 %726 мм4.1 м/с5 %
    09:00Ясно и безоблачно+15°C82 %728 мм3.3 м/с5 %
    12:00Ясно и безоблачно+23°C59 %728 мм2.9 м/с5 %
    15:00Ясно и безоблачно+27°C49 %726 мм1.9 м/с5 %
    18:00Ясно и безоблачно+24°C68 %726 мм2.5 м/с5 %
    21:00Ясно и безоблачно+21°C75 %726 мм2.6 м/с5 %
  • 22июля
    Понедельник
    +15°
    +29°
    Ясно и безоблачно
    ВремяПогодаТемператураВлажностьДавлениеВетер, м/сВероятность осадков
    00:00Ясно и безоблачно+18°C81 %727 мм2.5 м/с5 %
    03:00Ясно и безоблачно+16°C87 %726 мм2.2 м/с5 %
    06:00Практически безоблачно+16°C94 %727 мм2.9 м/с5 %
    09:00Небольшая облачность+17°C88 %728 мм2.7 м/с5 %
    12:00Ясно и безоблачно+25°C55 %729 мм1.5 м/с5 %
    15:00Ясно и безоблачно+29°C34 %727 мм1.2 м/с5 %
    18:00Ясно и безоблачно+24°C52 %726 мм2.2 м/с5 %
    21:00Ясно и безоблачно+21°C62 %727 мм2.6 м/с5 %
  • 23июля
    Вторник
    +15°
    +29°
    Ясно и безоблачно
    ВремяПогодаТемператураВлажностьДавлениеВетер, м/сВероятность осадков
    00:00Ясно и безоблачно+18°C73 %728 мм3.2 м/с5 %
    03:00Ясно и безоблачно+16°C93 %727 мм3.8 м/с5 %
    06:00Ясно и безоблачно+16°C94 %728 мм3.7 м/с5 %
    09:00Ясно и безоблачно+18°C79 %729 мм3.3 м/с5 %
    12:00Ясно и безоблачно+25°C53 %729 мм2.3 м/с5 %
    15:00Ясно и безоблачно+28°C44 %727 мм2.0 м/с5 %
    18:00Ясно и безоблачно+25°C59 %727 мм2.6 м/с5 %
    21:00Ясно и безоблачно+21°C67 %727 мм2.7 м/с5 %
Мы используем cookies
Соглашаюсь